Time,TemperatureF,DewpointF,PressureIn,WindDirection,WindDirectionDegrees,WindSpeedMPH,WindSpeedGustMPH,Humidity,HourlyPrecipIn,Conditions,Clouds,dailyrainin,SoftwareType,DateUTC
2013-02-03 00:05:00,10.5,7.6,30.17,WNW,289,5.0,6.0,88,0.00,,,0.00,Wunderground v.1.15,2013-02-03 06:05:00,
2013-02-03 00:10:00,10.7,7.8,30.17,NW,308,5.0,5.0,88,0.00,,,0.00,Wunderground v.1.15,2013-02-03 06:10:00,
2013-02-03 00:19:00,11.3,8.2,30.17,WSW,251,4.0,4.0,87,0.00,,,0.00,Wunderground v.1.15,2013-02-03 06:19:00,
2013-02-03 00:29:00,11.7,8.3,30.17,NW,324,5.0,6.0,86,0.00,,,0.00,Wunderground v.1.15,2013-02-03 06:29:00,
2013-02-03 00:34:00,11.7,8.3,30.18,NW,317,5.0,6.0,86,0.00,,,0.00,Wunderground v.1.15,2013-02-03 06:34:00,
2013-02-03 00:44:00,11.8,8.4,30.18,North,350,5.0,8.0,86,0.00,,,0.00,Wunderground v.1.15,2013-02-03 06:44:00,
2013-02-03 00:49:00,11.8,8.4,30.18,NNW,346,4.0,4.0,86,0.00,,,0.00,Wunderground v.1.15,2013-02-03 06:49:00,
2013-02-03 01:00:00,11.7,8.1,30.18,NW,309,5.0,7.0,85,0.00,,,0.00,Wunderground v.1.15,2013-02-03 07:00:00,
2013-02-03 01:05:00,11.7,8.1,30.19,WNW,297,5.0,7.0,85,0.00,,,0.00,Wunderground v.1.15,2013-02-03 07:05:00,
2013-02-03 01:14:00,11.7,7.8,30.19,NNW,339,6.0,6.0,84,0.00,,,0.00,Wunderground v.1.15,2013-02-03 07:14:00,
2013-02-03 01:24:00,11.6,7.7,30.19,North,349,5.0,8.0,84,0.00,,,0.00,Wunderground v.1.15,2013-02-03 07:24:00,
2013-02-03 01:34:00,11.0,6.8,30.20,WNW,289,5.0,6.0,83,0.00,,,0.00,Wunderground v.1.15,2013-02-03 07:34:00,
2013-02-03 01:44:00,10.5,6.4,30.20,North,354,6.0,6.0,83,0.00,,,0.00,Wunderground v.1.15,2013-02-03 07:44:00,
2013-02-03 01:49:00,10.4,6.5,30.20,WSW,256,6.0,7.0,84,0.00,,,0.00,Wunderground v.1.15,2013-02-03 07:49:00,
2013-02-03 01:59:00,10.1,6.0,30.21,WNW,287,6.0,6.0,83,0.00,,,0.00,Wunderground v.1.15,2013-02-03 07:59:00,
2013-02-03 02:05:00,9.8,5.7,30.21,WNW,283,5.0,6.0,83,0.00,,,0.00,Wunderground v.1.15,2013-02-03 08:05:00,
2013-02-03 02:14:00,9.3,5.2,30.21,North,354,6.0,6.0,83,0.00,,,0.00,Wunderground v.1.15,2013-02-03 08:14:00,
2013-02-03 02:19:00,9.1,5.0,30.21,NW,311,5.0,7.0,83,0.00,,,0.00,Wunderground v.1.15,2013-02-03 08:19:00,
2013-02-03 02:29:00,8.9,4.8,30.21,NW,307,5.0,5.0,83,0.00,,,0.00,Wunderground v.1.15,2013-02-03 08:29:00,
2013-02-03 02:40:00,8.9,4.8,30.21,WNW,301,6.0,6.0,83,0.00,,,0.00,Wunderground v.1.15,2013-02-03 08:40:00,
2013-02-03 02:49:00,8.3,4.2,30.20,WNW,301,6.0,6.0,83,0.00,,,0.00,Wunderground v.1.15,2013-02-03 08:49:00,
2013-02-03 02:54:00,8.0,3.9,30.20,NW,314,5.0,6.0,83,0.00,,,0.00,Wunderground v.1.15,2013-02-03 08:54:00,
2013-02-03 03:05:00,7.5,3.4,30.20,West,272,4.0,5.0,83,0.00,,,0.00,Wunderground v.1.15,2013-02-03 09:05:00,
2013-02-03 03:14:00,7.1,3.3,30.20,West,270,6.0,7.0,84,0.00,,,0.00,Wunderground v.1.15,2013-02-03 09:14:00,
2013-02-03 03:24:00,6.9,3.1,30.21,NW,314,6.0,7.0,84,0.00,,,0.00,Wunderground v.1.15,2013-02-03 09:24:00,
2013-02-03 03:29:00,6.9,3.1,30.21,West,269,7.0,9.0,84,0.00,,,0.00,Wunderground v.1.15,2013-02-03 09:29:00,
2013-02-03 03:39:00,6.8,3.0,30.22,West,276,8.0,8.0,84,0.00,,,0.00,Wunderground v.1.15,2013-02-03 09:39:00,
2013-02-03 03:44:00,6.7,2.9,30.22,WNW,290,7.0,12.0,84,0.00,,,0.00,Wunderground v.1.15,2013-02-03 09:44:00,
2013-02-03 03:55:00,6.5,3.0,30.22,WNW,291,7.0,8.0,85,0.00,,,0.00,Wunderground v.1.15,2013-02-03 09:55:00,
2013-02-03 04:05:00,6.6,2.8,30.22,WNW,299,8.0,10.0,84,0.00,,,0.00,Wunderground v.1.15,2013-02-03 10:05:00,
2013-02-03 04:15:00,6.4,2.6,30.23,NW,305,8.0,9.0,84,0.00,,,0.00,Wunderground v.1.15,2013-02-03 10:15:00,
2013-02-03 04:24:00,6.2,2.4,30.23,WNW,285,8.0,8.0,84,0.00,,,0.00,Wunderground v.1.15,2013-02-03 10:24:00,
2013-02-03 04:29:00,6.0,2.2,30.23,WNW,297,7.0,8.0,84,0.00,,,0.00,Wunderground v.1.15,2013-02-03 10:29:00,
2013-02-03 04:39:00,5.8,2.0,30.23,NNW,330,5.0,5.0,84,0.00,,,0.00,Wunderground v.1.15,2013-02-03 10:39:00,
2013-02-03 04:49:00,5.6,2.1,30.22,NW,319,3.0,4.0,85,0.00,,,0.00,Wunderground v.1.15,2013-02-03 10:49:00,
2013-02-03 04:59:00,5.4,1.6,30.23,NW,324,5.0,5.0,84,0.00,,,0.00,Wunderground v.1.15,2013-02-03 10:59:00,
2013-02-03 05:05:00,5.2,1.4,30.24,WNW,300,5.0,5.0,84,0.00,,,0.00,Wunderground v.1.15,2013-02-03 11:05:00,
2013-02-03 05:14:00,4.9,1.1,30.24,WNW,293,4.0,5.0,84,0.00,,,0.00,Wunderground v.1.15,2013-02-03 11:14:00,
2013-02-03 05:24:00,4.6,0.6,30.23,WNW,293,5.0,5.0,83,0.00,,,0.00,Wunderground v.1.15,2013-02-03 11:24:00,
2013-02-03 05:34:00,4.4,0.4,30.24,WNW,295,5.0,7.0,83,0.00,,,0.00,Wunderground v.1.15,2013-02-03 11:34:00,
2013-02-03 05:39:00,4.3,0.3,30.23,NNW,332,4.0,4.0,83,0.00,,,0.00,Wunderground v.1.15,2013-02-03 11:39:00,
2013-02-03 05:50:00,4.0,0.0,30.23,NW,314,3.0,4.0,83,0.00,,,0.00,Wunderground v.1.15,2013-02-03 11:50:00,
2013-02-03 05:59:00,3.8,-0.5,30.23,WNW,293,4.0,4.0,82,0.00,,,0.00,Wunderground v.1.15,2013-02-03 11:59:00,
2013-02-03 06:05:00,3.6,-0.7,30.24,WNW,300,4.0,4.0,82,0.00,,,0.00,Wunderground v.1.15,2013-02-03 12:05:00,
2013-02-03 06:14:00,3.5,-0.5,30.23,WNW,290,4.0,4.0,83,0.00,,,0.00,Wunderground v.1.15,2013-02-03 12:14:00,
2013-02-03 06:24:00,3.3,-0.7,30.24,West,281,4.0,4.0,83,0.00,,,0.00,Wunderground v.1.15,2013-02-03 12:24:00,
2013-02-03 06:34:00,3.3,-0.7,30.24,NW,308,3.0,4.0,83,0.00,,,0.00,Wunderground v.1.15,2013-02-03 12:34:00,
2013-02-03 06:39:00,3.3,-0.7,30.23,WNW,298,4.0,4.0,83,0.00,,,0.00,Wunderground v.1.15,2013-02-03 12:39:00,
2013-02-03 06:50:00,3.5,-0.5,30.24,WNW,282,5.0,6.0,83,0.00,,,0.00,Wunderground v.1.15,2013-02-03 12:50:00,
2013-02-03 06:59:00,3.8,-0.2,30.24,WNW,292,4.0,4.0,83,0.00,,,0.00,Wunderground v.1.15,2013-02-03 12:59:00,
2013-02-03 07:05:00,3.9,0.1,30.23,NW,308,3.0,4.0,84,0.00,,,0.00,Wunderground v.1.15,2013-02-03 13:05:00,
2013-02-03 07:14:00,4.2,0.4,30.23,NW,305,3.0,4.0,84,0.00,,,0.00,Wunderground v.1.15,2013-02-03 13:14:00,
2013-02-03 07:24:00,4.8,1.0,30.24,WNW,287,3.0,6.0,84,0.00,,,0.00,Wunderground v.1.15,2013-02-03 13:24:00,
2013-02-03 07:34:00,5.4,1.6,30.24,NNW,330,3.0,3.0,84,0.00,,,0.00,Wunderground v.1.15,2013-02-03 13:34:00,
2013-02-03 07:39:00,5.7,1.7,30.23,WNW,291,2.0,4.0,83,0.00,,,0.00,Wunderground v.1.15,2013-02-03 13:39:00,
2013-02-03 07:50:00,6.2,2.1,30.23,NW,310,1.0,1.0,83,0.00,,,0.00,Wunderground v.1.15,2013-02-03 13:50:00,
2013-02-03 07:59:00,6.7,2.4,30.23,NNW,345,2.0,2.0,82,0.00,,,0.00,Wunderground v.1.15,2013-02-03 13:59:00,
2013-02-03 08:05:00,7.0,2.7,30.23,WNW,299,2.0,2.0,82,0.00,,,0.00,Wunderground v.1.15,2013-02-03 14:05:00,
2013-02-03 08:14:00,7.4,3.1,30.24,WNW,297,3.0,4.0,82,0.00,,,0.00,Wunderground v.1.15,2013-02-03 14:14:00,
2013-02-03 08:19:00,7.7,3.4,30.24,WNW,301,2.0,2.0,82,0.00,,,0.00,Wunderground v.1.15,2013-02-03 14:19:00,
2013-02-03 08:29:00,8.0,3.4,30.24,NNW,344,3.0,3.0,81,0.00,,,0.00,Wunderground v.1.15,2013-02-03 14:29:00,
2013-02-03 08:34:00,8.1,3.2,30.24,WNW,290,2.0,3.0,80,0.00,,,0.00,Wunderground v.1.15,2013-02-03 14:34:00,
2013-02-03 08:44:00,8.4,3.8,30.24,NW,304,2.0,5.0,81,0.00,,,0.00,Wunderground v.1.15,2013-02-03 14:44:00,
2013-02-03 08:49:00,8.6,3.7,30.24,NW,322,3.0,3.0,80,0.00,,,0.00,Wunderground v.1.15,2013-02-03 14:49:00,
2013-02-03 08:59:00,8.9,4.0,30.24,NNW,331,3.0,5.0,80,0.00,,,0.00,Wunderground v.1.15,2013-02-03 14:59:00,
2013-02-03 09:05:00,8.9,4.0,30.24,NNW,335,3.0,5.0,80,0.00,,,0.00,Wunderground v.1.15,2013-02-03 15:05:00,
2013-02-03 09:14:00,9.4,4.5,30.24,WNW,300,3.0,3.0,80,0.00,,,0.00,Wunderground v.1.15,2013-02-03 15:14:00,
2013-02-03 09:24:00,9.7,4.5,30.24,NW,314,3.0,4.0,79,0.00,,,0.00,Wunderground v.1.15,2013-02-03 15:24:00,
2013-02-03 09:34:00,9.7,4.2,30.24,North,4,4.0,5.0,78,0.00,,,0.00,Wunderground v.1.15,2013-02-03 15:34:00,
2013-02-03 09:44:00,10.2,5.0,30.24,NNW,329,2.0,5.0,79,0.00,,,0.00,Wunderground v.1.15,2013-02-03 15:44:00,
2013-02-03 09:49:00,10.2,4.7,30.24,WNW,301,3.0,3.0,78,0.00,,,0.00,Wunderground v.1.15,2013-02-03 15:49:00,
2013-02-03 09:59:00,10.1,4.3,30.24,NW,319,4.0,4.0,77,0.00,,,0.00,Wunderground v.1.15,2013-02-03 15:59:00,
2013-02-03 10:05:00,10.1,4.0,30.24,WNW,299,4.0,4.0,76,0.00,,,0.00,Wunderground v.1.15,2013-02-03 16:05:00,
2013-02-03 10:14:00,10.7,4.9,30.24,West,280,2.0,4.0,77,0.00,,,0.00,Wunderground v.1.15,2013-02-03 16:14:00,
2013-02-03 10:24:00,10.7,4.9,30.24,WNW,294,3.0,3.0,77,0.00,,,0.00,Wunderground v.1.15,2013-02-03 16:24:00,
2013-02-03 10:35:00,10.7,4.6,30.25,NW,312,3.0,6.0,76,0.00,,,0.00,Wunderground v.1.15,2013-02-03 16:35:00,
2013-02-03 10:44:00,10.5,4.4,30.25,NNW,330,4.0,5.0,76,0.00,,,0.00,Wunderground v.1.15,2013-02-03 16:44:00,
2013-02-03 10:49:00,10.7,4.9,30.24,NNW,347,3.0,3.0,77,0.00,,,0.00,Wunderground v.1.15,2013-02-03 16:49:00,
2013-02-03 10:59:00,11.0,4.9,30.24,NNW,327,3.0,3.0,76,0.00,,,0.00,Wunderground v.1.15,2013-02-03 16:59:00,
2013-02-03 11:05:00,11.3,5.2,30.24,NNE,15,3.0,3.0,76,0.00,,,0.00,Wunderground v.1.15,2013-02-03 17:05:00,
2013-02-03 11:14:00,11.0,4.6,30.23,North,350,3.0,4.0,75,0.00,,,0.00,Wunderground v.1.15,2013-02-03 17:14:00,
2013-02-03 11:24:00,11.2,5.1,30.23,NW,308,2.0,3.0,76,0.00,,,0.00,Wunderground v.1.15,2013-02-03 17:24:00,
2013-02-03 11:34:00,11.2,5.1,30.23,NNW,337,3.0,3.0,76,0.00,,,0.00,Wunderground v.1.15,2013-02-03 17:34:00,
2013-02-03 11:44:00,11.6,5.2,30.23,WNW,300,1.0,3.0,75,0.00,,,0.00,Wunderground v.1.15,2013-02-03 17:44:00,
2013-02-03 11:49:00,11.6,4.9,30.23,North,4,2.0,2.0,74,0.00,,,0.00,Wunderground v.1.15,2013-02-03 17:49:00,
2013-02-03 11:59:00,11.1,4.7,30.22,NW,304,3.0,3.0,75,0.00,,,0.00,Wunderground v.1.15,2013-02-03 17:59:00,
2013-02-03 12:05:00,11.4,5.3,30.22,WNW,283,2.0,3.0,76,0.00,,,0.00,Wunderground v.1.15,2013-02-03 18:05:00,
2013-02-03 12:14:00,11.2,4.8,30.22,WNW,283,2.0,4.0,75,0.00,,,0.00,Wunderground v.1.15,2013-02-03 18:14:00,
2013-02-03 12:19:00,11.3,5.2,30.22,NNW,328,2.0,2.0,76,0.00,,,0.00,Wunderground v.1.15,2013-02-03 18:19:00,
2013-02-03 12:29:00,11.4,5.0,30.21,West,275,1.0,1.0,75,0.00,,,0.00,Wunderground v.1.15,2013-02-03 18:29:00,
2013-02-03 12:39:00,11.6,5.2,30.20,West,272,1.0,1.0,75,0.00,,,0.00,Wunderground v.1.15,2013-02-03 18:39:00,
2013-02-03 12:44:00,11.8,5.7,30.20,NW,316,1.0,1.0,76,0.00,,,0.00,Wunderground v.1.15,2013-02-03 18:44:00,
2013-02-03 12:54:00,11.9,6.1,30.19,WSW,251,1.0,3.0,77,0.00,,,0.00,Wunderground v.1.15,2013-02-03 18:54:00,
2013-02-03 13:05:00,11.7,6.2,30.20,SW,231,2.0,2.0,78,0.00,,,0.00,Wunderground v.1.15,2013-02-03 19:05:00,
2013-02-03 13:14:00,11.4,5.9,30.19,West,269,3.0,3.0,78,0.00,,,0.00,Wunderground v.1.15,2013-02-03 19:14:00,
2013-02-03 13:24:00,11.5,6.2,30.18,SW,220,2.0,3.0,79,0.00,,,0.00,Wunderground v.1.15,2013-02-03 19:24:00,
2013-02-03 13:29:00,11.6,6.3,30.17,WSW,239,2.0,3.0,79,0.00,,,0.00,Wunderground v.1.15,2013-02-03 19:29:00,
2013-02-03 13:39:00,11.7,6.7,30.17,South,179,2.0,2.0,80,0.00,,,0.00,Wunderground v.1.15,2013-02-03 19:39:00,
2013-02-03 13:49:00,11.8,6.8,30.16,SSW,193,2.0,2.0,80,0.00,,,0.00,Wunderground v.1.15,2013-02-03 19:49:00,
2013-02-03 13:54:00,11.6,6.3,30.16,SSW,198,2.0,2.0,79,0.00,,,0.00,Wunderground v.1.15,2013-02-03 19:54:00,
2013-02-03 14:05:00,11.7,6.4,30.16,SSW,210,1.0,2.0,79,0.00,,,0.00,Wunderground v.1.15,2013-02-03 20:05:00,
2013-02-03 14:14:00,12.1,6.8,30.15,South,189,1.0,3.0,79,0.00,,,0.00,Wunderground v.1.15,2013-02-03 20:14:00,
2013-02-03 14:24:00,12.1,6.8,30.15,SW,228,1.0,2.0,79,0.00,,,0.00,Wunderground v.1.15,2013-02-03 20:24:00,
2013-02-03 14:29:00,12.4,7.1,30.15,SSW,202,0.0,0.0,79,0.00,,,0.00,Wunderground v.1.15,2013-02-03 20:29:00,
2013-02-03 14:39:00,12.5,6.7,30.14,SSW,202,1.0,1.0,77,0.00,,,0.00,Wunderground v.1.15,2013-02-03 20:39:00,
2013-02-03 14:44:00,12.6,6.8,30.15,SSW,201,1.0,1.0,77,0.00,,,0.00,Wunderground v.1.15,2013-02-03 20:44:00,
2013-02-03 14:54:00,13.0,6.9,30.14,South,183,1.0,1.0,76,0.00,,,0.00,Wunderground v.1.15,2013-02-03 20:54:00,
2013-02-03 14:59:00,13.0,6.9,30.14,South,185,1.0,3.0,76,0.00,,,0.00,Wunderground v.1.15,2013-02-03 20:59:00,
2013-02-03 15:05:00,13.0,7.1,30.13,South,185,1.0,3.0,77,0.00,,,0.00,Wunderground v.1.15,2013-02-03 21:05:00,
2013-02-03 15:14:00,12.7,6.6,30.13,SSW,203,1.0,1.0,76,0.00,,,0.00,Wunderground v.1.15,2013-02-03 21:14:00,
2013-02-03 15:19:00,12.7,6.9,30.13,SSW,198,1.0,2.0,77,0.00,,,0.00,Wunderground v.1.15,2013-02-03 21:19:00,
2013-02-03 15:30:00,12.9,6.8,30.13,SSW,198,0.0,0.0,76,0.00,,,0.00,Wunderground v.1.15,2013-02-03 21:30:00,
2013-02-03 15:39:00,13.1,7.0,30.13,SSW,198,0.0,0.0,76,0.00,,,0.00,Wunderground v.1.15,2013-02-03 21:39:00,
2013-02-03 15:44:00,13.4,7.2,30.13,SSW,198,0.0,0.0,76,0.00,,,0.00,Wunderground v.1.15,2013-02-03 21:44:00,
2013-02-03 15:54:00,13.2,7.0,30.13,South,185,2.0,3.0,76,0.00,,,0.00,Wunderground v.1.15,2013-02-03 21:54:00,
2013-02-03 16:05:00,13.2,7.3,30.13,South,184,0.0,1.0,77,0.00,,,0.00,Wunderground v.1.15,2013-02-03 22:05:00,
2013-02-03 16:14:00,13.2,7.0,30.12,South,184,0.0,0.0,76,0.00,,,0.00,Wunderground v.1.15,2013-02-03 22:14:00,
2013-02-03 16:24:00,13.3,7.7,30.12,South,181,0.0,0.0,78,0.00,,,0.00,Wunderground v.1.15,2013-02-03 22:24:00,
2013-02-03 16:34:00,12.7,7.1,30.12,East,85,1.0,1.0,78,0.00,,,0.00,Wunderground v.1.15,2013-02-03 22:34:00,
2013-02-03 16:44:00,12.6,7.3,30.12,ENE,75,1.0,1.0,79,0.00,,,0.00,Wunderground v.1.15,2013-02-03 22:44:00,
2013-02-03 16:49:00,12.5,7.2,30.12,ENE,75,0.0,0.0,79,0.00,,,0.00,Wunderground v.1.15,2013-02-03 22:49:00,
2013-02-03 16:59:00,12.7,7.4,30.12,ENE,73,0.0,0.0,79,0.00,,,0.00,Wunderground v.1.15,2013-02-03 22:59:00,
2013-02-03 17:05:00,12.7,7.4,30.12,ENE,73,0.0,0.0,79,0.00,,,0.00,Wunderground v.1.15,2013-02-03 23:05:00,
2013-02-03 17:14:00,12.8,7.5,30.12,East,79,0.0,0.0,79,0.00,,,0.00,Wunderground v.1.15,2013-02-03 23:14:00,
2013-02-03 17:24:00,12.7,7.7,30.13,East,80,0.0,0.0,80,0.00,,,0.00,Wunderground v.1.15,2013-02-03 23:24:00,
2013-02-03 17:34:00,12.5,7.5,30.12,East,79,0.0,0.0,80,0.00,,,0.00,Wunderground v.1.15,2013-02-03 23:34:00,
2013-02-03 17:39:00,12.5,7.8,30.12,SE,141,0.0,0.0,81,0.00,,,0.00,Wunderground v.1.15,2013-02-03 23:39:00,
2013-02-03 17:49:00,12.4,8.2,30.12,SSE,164,0.0,0.0,83,0.00,,,0.00,Wunderground v.1.15,2013-02-03 23:49:00,
2013-02-03 17:59:00,12.2,8.3,30.12,SSE,168,1.0,1.0,84,0.00,,,0.00,Wunderground v.1.15,2013-02-03 23:59:00,
2013-02-03 18:05:00,12.1,8.5,30.12,SSE,161,1.0,1.0,85,0.00,,,0.00,Wunderground v.1.15,2013-02-04 00:05:00,
2013-02-03 18:14:00,11.7,8.1,30.12,SSE,150,0.0,1.0,85,0.00,,,0.00,Wunderground v.1.15,2013-02-04 00:14:00,
2013-02-03 18:24:00,11.5,8.1,30.12,East,89,1.0,2.0,86,0.00,,,0.00,Wunderground v.1.15,2013-02-04 00:24:00,
2013-02-03 18:29:00,11.4,8.0,30.12,ENE,68,1.0,2.0,86,0.00,,,0.00,Wunderground v.1.15,2013-02-04 00:29:00,
2013-02-03 18:39:00,11.3,7.9,30.12,East,83,2.0,3.0,86,0.00,,,0.00,Wunderground v.1.15,2013-02-04 00:39:00,
2013-02-03 18:49:00,11.3,7.9,30.11,East,82,2.0,2.0,86,0.00,,,0.00,Wunderground v.1.15,2013-02-04 00:49:00,
2013-02-03 18:54:00,11.3,8.2,30.11,NE,52,2.0,3.0,87,0.00,,,0.00,Wunderground v.1.15,2013-02-04 00:54:00,
2013-02-03 19:05:00,11.2,8.1,30.11,East,85,3.0,3.0,87,0.00,,,0.00,Wunderground v.1.15,2013-02-04 01:05:00,
2013-02-03 19:14:00,11.2,8.1,30.10,East,93,2.0,2.0,87,0.00,,,0.00,Wunderground v.1.15,2013-02-04 01:14:00,
2013-02-03 19:24:00,11.0,7.9,30.10,ENE,58,4.0,4.0,87,0.00,,,0.00,Wunderground v.1.15,2013-02-04 01:24:00,
2013-02-03 19:29:00,11.0,7.9,30.10,NE,34,4.0,4.0,87,0.00,,,0.00,Wunderground v.1.15,2013-02-04 01:29:00,
2013-02-03 19:39:00,10.9,8.0,30.10,ENE,63,3.0,3.0,88,0.00,,,0.00,Wunderground v.1.15,2013-02-04 01:39:00,
2013-02-03 19:49:00,10.8,7.9,30.10,ENE,60,3.0,3.0,88,0.00,,,0.00,Wunderground v.1.15,2013-02-04 01:49:00,
2013-02-03 19:54:00,10.8,7.9,30.10,NNE,28,4.0,5.0,88,0.00,,,0.00,Wunderground v.1.15,2013-02-04 01:54:00,
2013-02-03 20:05:00,10.8,7.9,30.10,NE,39,3.0,4.0,88,0.00,,,0.01,Wunderground v.1.15,2013-02-04 02:05:00,
2013-02-03 20:14:00,10.7,7.8,30.10,NNE,32,3.0,5.0,88,0.00,,,0.01,Wunderground v.1.15,2013-02-04 02:14:00,
2013-02-03 20:24:00,10.6,7.7,30.10,ENE,71,4.0,5.0,88,0.00,,,0.01,Wunderground v.1.15,2013-02-04 02:24:00,
2013-02-03 20:34:00,10.6,7.7,30.10,NE,45,3.0,4.0,88,0.00,,,0.01,Wunderground v.1.15,2013-02-04 02:34:00,
2013-02-03 20:39:00,10.7,7.8,30.10,NE,45,4.0,4.0,88,0.00,,,0.01,Wunderground v.1.15,2013-02-04 02:39:00,
2013-02-03 20:49:00,10.7,7.8,30.10,NE,48,4.0,4.0,88,0.00,,,0.01,Wunderground v.1.15,2013-02-04 02:49:00,
2013-02-03 20:59:00,10.7,7.6,30.10,NE,38,4.0,4.0,87,0.00,,,0.01,Wunderground v.1.15,2013-02-04 02:59:00,
2013-02-03 21:05:00,10.6,7.5,30.09,NE,50,4.0,6.0,87,0.00,,,0.01,Wunderground v.1.15,2013-02-04 03:05:00,
2013-02-03 21:14:00,10.6,7.7,30.10,ENE,62,4.0,4.0,88,0.00,,,0.01,Wunderground v.1.15,2013-02-04 03:14:00,
2013-02-03 21:24:00,10.6,7.5,30.10,ENE,76,4.0,5.0,87,0.00,,,0.01,Wunderground v.1.15,2013-02-04 03:24:00,
2013-02-03 21:34:00,10.5,7.4,30.11,ENE,66,5.0,5.0,87,0.00,,,0.01,Wunderground v.1.15,2013-02-04 03:34:00,
2013-02-03 21:39:00,10.5,7.4,30.11,ENE,60,4.0,4.0,87,0.00,,,0.01,Wunderground v.1.15,2013-02-04 03:39:00,
2013-02-03 21:49:00,10.6,7.7,30.11,NE,37,3.0,3.0,88,0.00,,,0.01,Wunderground v.1.15,2013-02-04 03:49:00,
2013-02-03 21:54:00,10.6,7.7,30.11,NE,35,3.0,3.0,88,0.00,,,0.01,Wunderground v.1.15,2013-02-04 03:54:00,
2013-02-03 22:05:00,10.5,7.6,30.11,NE,48,2.0,5.0,88,0.00,,,0.01,Wunderground v.1.15,2013-02-04 04:05:00,
2013-02-03 22:14:00,10.5,7.6,30.11,ENE,75,3.0,5.0,88,0.00,,,0.02,Wunderground v.1.15,2013-02-04 04:14:00,
2013-02-03 22:24:00,10.4,7.6,30.10,ENE,62,4.0,4.0,88,0.00,,,0.02,Wunderground v.1.15,2013-02-04 04:24:00,
2013-02-03 22:29:00,10.3,7.5,30.10,NNE,23,4.0,4.0,88,0.00,,,0.02,Wunderground v.1.15,2013-02-04 04:29:00,
2013-02-03 22:39:00,10.4,7.6,30.10,NE,54,4.0,5.0,88,0.00,,,0.02,Wunderground v.1.15,2013-02-04 04:39:00,
2013-02-03 22:44:00,10.5,7.6,30.10,NE,46,4.0,5.0,88,0.00,,,0.02,Wunderground v.1.15,2013-02-04 04:44:00,
2013-02-03 22:54:00,10.5,7.6,30.10,NE,54,3.0,4.0,88,0.00,,,0.02,Wunderground v.1.15,2013-02-04 04:54:00,
2013-02-03 22:59:00,10.5,7.6,30.10,NE,37,3.0,4.0,88,0.00,,,0.02,Wunderground v.1.15,2013-02-04 04:59:00,
2013-02-03 23:05:00,10.6,7.7,30.10,NE,46,3.0,4.0,88,0.00,,,0.02,Wunderground v.1.15,2013-02-04 05:05:00,
2013-02-03 23:09:00,10.5,7.6,30.10,ENE,65,3.0,5.0,88,0.00,,,0.02,Wunderground v.1.15,2013-02-04 05:09:00,
2013-02-03 23:19:00,10.4,7.6,30.10,NE,37,5.0,6.0,88,0.00,,,0.02,Wunderground v.1.15,2013-02-04 05:19:00,
2013-02-03 23:24:00,10.4,7.6,30.10,NE,35,5.0,6.0,88,0.00,,,0.02,Wunderground v.1.15,2013-02-04 05:24:00,
2013-02-03 23:30:00,10.4,7.6,30.11,NE,35,5.0,5.0,88,0.00,,,0.02,Wunderground v.1.15,2013-02-04 05:30:00,
2013-02-03 23:39:00,10.4,7.6,30.10,NNE,30,4.0,6.0,88,0.00,,,0.03,Wunderground v.1.15,2013-02-04 05:39:00,
2013-02-03 23:44:00,10.4,7.6,30.11,NE,45,4.0,6.0,88,0.00,,,0.03,Wunderground v.1.15,2013-02-04 05:44:00,
2013-02-03 23:54:00,10.4,7.6,30.10,ENE,68,4.0,4.0,88,0.00,,,0.03,Wunderground v.1.15,2013-02-04 05:54:00,
2013-02-03 23:59:00,10.4,7.6,30.10,NE,52,3.0,3.0,88,0.00,,,0.00,Wunderground v.1.15,2013-02-04 05:59:00,